sensor_id;sensor_type;location;lat;lon;timestamp;temperature;humidity
9329;DHT22;4703;48.748;19.142;2022-08-25T00:00:10;19.90;99.90
9329;DHT22;4703;48.748;19.142;2022-08-25T00:02:37;19.90;99.90
9329;DHT22;4703;48.748;19.142;2022-08-25T00:05:06;19.90;99.90
9329;DHT22;4703;48.748;19.142;2022-08-25T00:07:34;19.90;99.90
9329;DHT22;4703;48.748;19.142;2022-08-25T00:10:04;19.90;99.90
9329;DHT22;4703;48.748;19.142;2022-08-25T00:12:32;19.80;99.90
9329;DHT22;4703;48.748;19.142;2022-08-25T00:14:59;19.80;99.90
9329;DHT22;4703;48.748;19.142;2022-08-25T00:17:26;19.80;99.90
9329;DHT22;4703;48.748;19.142;2022-08-25T00:19:53;19.80;99.90
9329;DHT22;4703;48.748;19.142;2022-08-25T00:22:21;19.80;99.90
9329;DHT22;4703;48.748;19.142;2022-08-25T00:24:48;19.80;99.90
9329;DHT22;4703;48.748;19.142;2022-08-25T00:27:15;19.80;99.90
9329;DHT22;4703;48.748;19.142;2022-08-25T00:29:42;19.80;99.90
9329;DHT22;4703;48.748;19.142;2022-08-25T00:32:09;20.60;99.90
9329;DHT22;4703;48.748;19.142;2022-08-25T00:34:37;19.70;99.90
9329;DHT22;4703;48.748;19.142;2022-08-25T00:37:06;20.60;99.90
9329;DHT22;4703;48.748;19.142;2022-08-25T00:39:36;19.70;99.90
9329;DHT22;4703;48.748;19.142;2022-08-25T00:42:05;19.70;99.90
9329;DHT22;4703;48.748;19.142;2022-08-25T00:44:42;19.60;99.90
9329;DHT22;4703;48.748;19.142;2022-08-25T00:47:09;19.60;99.90
9329;DHT22;4703;48.748;19.142;2022-08-25T00:49:53;20.60;99.90
9329;DHT22;4703;48.748;19.142;2022-08-25T00:52:31;19.70;99.90
9329;DHT22;4703;48.748;19.142;2022-08-25T00:55:27;19.60;99.90
9329;DHT22;4703;48.748;19.142;2022-08-25T00:57:57;19.60;99.90
9329;DHT22;4703;48.748;19.142;2022-08-25T01:00:34;19.60;99.90
9329;DHT22;4703;48.748;19.142;2022-08-25T01:03:04;19.50;99.90
9329;DHT22;4703;48.748;19.142;2022-08-25T01:05:32;19.50;99.90
9329;DHT22;4703;48.748;19.142;2022-08-25T01:08:00;19.50;99.90
9329;DHT22;4703;48.748;19.142;2022-08-25T01:10:34;19.50;99.90
9329;DHT22;4703;48.748;19.142;2022-08-25T01:13:21;19.40;99.90
9329;DHT22;4703;48.748;19.142;2022-08-25T01:15:54;19.40;99.90
9329;DHT22;4703;48.748;19.142;2022-08-25T01:18:22;19.40;99.90
9329;DHT22;4703;48.748;19.142;2022-08-25T01:20:51;19.40;99.90
9329;DHT22;4703;48.748;19.142;2022-08-25T01:23:23;19.40;99.90
9329;DHT22;4703;48.748;19.142;2022-08-25T01:25:57;19.30;99.90
9329;DHT22;4703;48.748;19.142;2022-08-25T01:28:35;20.50;99.90
9329;DHT22;4703;48.748;19.142;2022-08-25T01:31:03;19.50;99.90
9329;DHT22;4703;48.748;19.142;2022-08-25T01:33:49;19.30;99.90
9329;DHT22;4703;48.748;19.142;2022-08-25T01:36:18;19.30;99.90
9329;DHT22;4703;48.748;19.142;2022-08-25T01:38:46;19.30;99.90
9329;DHT22;4703;48.748;19.142;2022-08-25T01:41:20;19.30;99.90
9329;DHT22;4703;48.748;19.142;2022-08-25T01:43:57;19.30;99.90
9329;DHT22;4703;48.748;19.142;2022-08-25T01:46:25;19.30;99.90
9329;DHT22;4703;48.748;19.142;2022-08-25T01:48:53;19.40;99.90
9329;DHT22;4703;48.748;19.142;2022-08-25T01:51:23;19.30;99.90
9329;DHT22;4703;48.748;19.142;2022-08-25T01:53:51;19.30;99.90
9329;DHT22;4703;48.748;19.142;2022-08-25T01:56:18;19.30;99.90
9329;DHT22;4703;48.748;19.142;2022-08-25T01:58:47;19.30;99.90
9329;DHT22;4703;48.748;19.142;2022-08-25T02:01:18;19.20;99.90
9329;DHT22;4703;48.748;19.142;2022-08-25T02:03:49;19.20;99.90
9329;DHT22;4703;48.748;19.142;2022-08-25T02:06:21;19.20;99.90
9329;DHT22;4703;48.748;19.142;2022-08-25T02:08:58;19.20;99.90
9329;DHT22;4703;48.748;19.142;2022-08-25T02:11:27;19.20;99.90
9329;DHT22;4703;48.748;19.142;2022-08-25T02:13:55;19.10;99.90
9329;DHT22;4703;48.748;19.142;2022-08-25T02:16:31;19.20;99.90
9329;DHT22;4703;48.748;19.142;2022-08-25T02:19:00;19.20;99.90
9329;DHT22;4703;48.748;19.142;2022-08-25T02:21:27;19.50;99.90
9329;DHT22;4703;48.748;19.142;2022-08-25T02:23:55;19.20;99.90
9329;DHT22;4703;48.748;19.142;2022-08-25T02:26:22;19.20;99.90
9329;DHT22;4703;48.748;19.142;2022-08-25T02:28:50;19.20;99.90
9329;DHT22;4703;48.748;19.142;2022-08-25T02:31:20;19.20;99.90
9329;DHT22;4703;48.748;19.142;2022-08-25T02:33:50;19.20;99.90
9329;DHT22;4703;48.748;19.142;2022-08-25T02:36:18;19.20;99.90
9329;DHT22;4703;48.748;19.142;2022-08-25T02:38:46;19.20;99.90
9329;DHT22;4703;48.748;19.142;2022-08-25T02:41:18;19.20;99.90
9329;DHT22;4703;48.748;19.142;2022-08-25T02:43:50;19.20;99.90
9329;DHT22;4703;48.748;19.142;2022-08-25T02:46:19;19.20;99.90
9329;DHT22;4703;48.748;19.142;2022-08-25T02:48:47;19.20;99.90
9329;DHT22;4703;48.748;19.142;2022-08-25T02:51:14;19.20;99.90
9329;DHT22;4703;48.748;19.142;2022-08-25T02:53:42;19.30;99.90
9329;DHT22;4703;48.748;19.142;2022-08-25T02:56:12;19.30;99.90
9329;DHT22;4703;48.748;19.142;2022-08-25T02:58:40;19.30;99.90
9329;DHT22;4703;48.748;19.142;2022-08-25T03:01:08;19.20;99.90
9329;DHT22;4703;48.748;19.142;2022-08-25T03:03:39;19.20;99.90
9329;DHT22;4703;48.748;19.142;2022-08-25T03:06:13;19.20;99.90
9329;DHT22;4703;48.748;19.142;2022-08-25T03:08:43;19.20;99.90
9329;DHT22;4703;48.748;19.142;2022-08-25T03:11:11;19.20;99.90
9329;DHT22;4703;48.748;19.142;2022-08-25T03:13:39;19.20;99.90
9329;DHT22;4703;48.748;19.142;2022-08-25T03:16:07;19.20;99.90
9329;DHT22;4703;48.748;19.142;2022-08-25T03:18:39;19.30;99.90
9329;DHT22;4703;48.748;19.142;2022-08-25T03:21:08;19.30;99.90
9329;DHT22;4703;48.748;19.142;2022-08-25T03:23:37;19.30;99.90
9329;DHT22;4703;48.748;19.142;2022-08-25T03:26:05;19.20;99.90
9329;DHT22;4703;48.748;19.142;2022-08-25T03:28:51;19.20;99.90
9329;DHT22;4703;48.748;19.142;2022-08-25T03:31:22;19.20;99.90
9329;DHT22;4703;48.748;19.142;2022-08-25T03:33:51;19.10;99.90
9329;DHT22;4703;48.748;19.142;2022-08-25T03:36:19;19.10;99.90
9329;DHT22;4703;48.748;19.142;2022-08-25T03:38:46;19.10;99.90
9329;DHT22;4703;48.748;19.142;2022-08-25T03:41:22;19.10;99.90
9329;DHT22;4703;48.748;19.142;2022-08-25T03:43:55;19.00;99.90
9329;DHT22;4703;48.748;19.142;2022-08-25T03:46:28;19.00;99.90
9329;DHT22;4703;48.748;19.142;2022-08-25T03:49:02;19.00;99.90
9329;DHT22;4703;48.748;19.142;2022-08-25T03:51:33;19.00;99.90
9329;DHT22;4703;48.748;19.142;2022-08-25T03:54:03;18.90;99.90
9329;DHT22;4703;48.748;19.142;2022-08-25T03:56:30;18.90;99.90
9329;DHT22;4703;48.748;19.142;2022-08-25T03:58:58;20.30;99.90
9329;DHT22;4703;48.748;19.142;2022-08-25T04:01:25;18.90;99.90
9329;DHT22;4703;48.748;19.142;2022-08-25T04:03:53;18.90;99.90
9329;DHT22;4703;48.748;19.142;2022-08-25T04:06:21;18.90;99.90
9329;DHT22;4703;48.748;19.142;2022-08-25T04:08:51;18.90;99.90
9329;DHT22;4703;48.748;19.142;2022-08-25T04:11:21;18.90;99.90
9329;DHT22;4703;48.748;19.142;2022-08-25T04:13:50;18.90;99.90
9329;DHT22;4703;48.748;19.142;2022-08-25T04:16:21;18.90;99.90
9329;DHT22;4703;48.748;19.142;2022-08-25T04:18:54;19.50;99.90
9329;DHT22;4703;48.748;19.142;2022-08-25T04:21:22;18.80;99.90
9329;DHT22;4703;48.748;19.142;2022-08-25T04:23:51;18.80;99.90
9329;DHT22;4703;48.748;19.142;2022-08-25T04:26:24;19.00;99.90
9329;DHT22;4703;48.748;19.142;2022-08-25T04:28:53;18.80;99.90
9329;DHT22;4703;48.748;19.142;2022-08-25T04:31:21;18.80;99.90
9329;DHT22;4703;48.748;19.142;2022-08-25T04:33:48;18.80;99.90
9329;DHT22;4703;48.748;19.142;2022-08-25T04:36:17;18.80;99.90
9329;DHT22;4703;48.748;19.142;2022-08-25T04:38:45;18.80;99.90
9329;DHT22;4703;48.748;19.142;2022-08-25T04:41:15;18.80;99.90
9329;DHT22;4703;48.748;19.142;2022-08-25T04:43:45;18.80;99.90
9329;DHT22;4703;48.748;19.142;2022-08-25T04:46:16;18.90;99.90
9329;DHT22;4703;48.748;19.142;2022-08-25T04:48:47;18.80;99.90
9329;DHT22;4703;48.748;19.142;2022-08-25T04:51:17;18.80;99.90
9329;DHT22;4703;48.748;19.142;2022-08-25T04:53:45;18.90;99.90
9329;DHT22;4703;48.748;19.142;2022-08-25T04:56:17;18.90;99.90
9329;DHT22;4703;48.748;19.142;2022-08-25T04:58:45;18.90;99.90
9329;DHT22;4703;48.748;19.142;2022-08-25T05:01:16;18.90;99.90
9329;DHT22;4703;48.748;19.142;2022-08-25T05:03:47;18.90;99.90
9329;DHT22;4703;48.748;19.142;2022-08-25T05:06:17;18.90;99.90
9329;DHT22;4703;48.748;19.142;2022-08-25T05:08:44;19.00;99.90
9329;DHT22;4703;48.748;19.142;2022-08-25T05:11:13;19.00;99.90
9329;DHT22;4703;48.748;19.142;2022-08-25T05:13:48;19.10;99.90
9329;DHT22;4703;48.748;19.142;2022-08-25T05:16:18;19.00;99.90
9329;DHT22;4703;48.748;19.142;2022-08-25T05:18:48;19.10;99.90
9329;DHT22;4703;48.748;19.142;2022-08-25T05:21:19;19.10;99.90
9329;DHT22;4703;48.748;19.142;2022-08-25T05:23:48;19.20;99.90
9329;DHT22;4703;48.748;19.142;2022-08-25T05:26:19;19.10;99.90
9329;DHT22;4703;48.748;19.142;2022-08-25T05:28:48;19.20;99.90
9329;DHT22;4703;48.748;19.142;2022-08-25T05:31:17;19.20;99.90
9329;DHT22;4703;48.748;19.142;2022-08-25T05:33:45;19.30;99.90
9329;DHT22;4703;48.748;19.142;2022-08-25T05:36:14;19.30;99.90
9329;DHT22;4703;48.748;19.142;2022-08-25T05:38:42;19.30;99.90
9329;DHT22;4703;48.748;19.142;2022-08-25T05:41:12;19.30;99.90
9329;DHT22;4703;48.748;19.142;2022-08-25T05:43:43;19.40;99.90
9329;DHT22;4703;48.748;19.142;2022-08-25T05:46:12;19.40;99.90
9329;DHT22;4703;48.748;19.142;2022-08-25T05:48:39;19.70;99.90
9329;DHT22;4703;48.748;19.142;2022-08-25T05:51:08;19.50;99.90
9329;DHT22;4703;48.748;19.142;2022-08-25T05:53:37;19.50;99.90
9329;DHT22;4703;48.748;19.142;2022-08-25T05:56:08;19.50;99.90
9329;DHT22;4703;48.748;19.142;2022-08-25T05:58:36;19.50;99.90
9329;DHT22;4703;48.748;19.142;2022-08-25T06:01:03;19.60;99.90
9329;DHT22;4703;48.748;19.142;2022-08-25T06:03:50;19.60;99.90
9329;DHT22;4703;48.748;19.142;2022-08-25T06:06:21;19.70;99.90
9329;DHT22;4703;48.748;19.142;2022-08-25T06:08:49;19.70;99.90
9329;DHT22;4703;48.748;19.142;2022-08-25T06:11:17;19.70;99.90
9329;DHT22;4703;48.748;19.142;2022-08-25T06:13:45;20.50;99.90
9329;DHT22;4703;48.748;19.142;2022-08-25T06:16:12;21.10;99.90
9329;DHT22;4703;48.748;19.142;2022-08-25T06:18:39;19.80;99.90
9329;DHT22;4703;48.748;19.142;2022-08-25T06:21:11;19.90;99.90
9329;DHT22;4703;48.748;19.142;2022-08-25T06:23:40;19.90;99.90
9329;DHT22;4703;48.748;19.142;2022-08-25T06:26:10;20.00;99.90
9329;DHT22;4703;48.748;19.142;2022-08-25T06:28:46;20.00;99.90
9329;DHT22;4703;48.748;19.142;2022-08-25T06:31:14;20.10;99.90
9329;DHT22;4703;48.748;19.142;2022-08-25T06:33:42;20.10;99.90
9329;DHT22;4703;48.748;19.142;2022-08-25T06:36:10;20.10;99.90
9329;DHT22;4703;48.748;19.142;2022-08-25T06:38:36;20.20;99.90
9329;DHT22;4703;48.748;19.142;2022-08-25T06:41:04;20.20;99.90
9329;DHT22;4703;48.748;19.142;2022-08-25T06:43:33;20.30;99.90
9329;DHT22;4703;48.748;19.142;2022-08-25T06:46:12;20.30;99.90
9329;DHT22;4703;48.748;19.142;2022-08-25T06:49:03;20.40;99.90
9329;DHT22;4703;48.748;19.142;2022-08-25T06:51:31;20.30;99.90
9329;DHT22;4703;48.748;19.142;2022-08-25T06:54:02;20.50;99.90
9329;DHT22;4703;48.748;19.142;2022-08-25T06:56:30;20.50;99.90
9329;DHT22;4703;48.748;19.142;2022-08-25T06:58:57;20.50;99.90
9329;DHT22;4703;48.748;19.142;2022-08-25T07:01:25;20.60;99.90
9329;DHT22;4703;48.748;19.142;2022-08-25T07:03:58;20.60;99.90
9329;DHT22;4703;48.748;19.142;2022-08-25T07:06:28;20.70;99.90
9329;DHT22;4703;48.748;19.142;2022-08-25T07:08:58;20.70;99.90
9329;DHT22;4703;48.748;19.142;2022-08-25T07:11:25;20.80;99.90
9329;DHT22;4703;48.748;19.142;2022-08-25T07:13:52;20.80;99.90
9329;DHT22;4703;48.748;19.142;2022-08-25T07:16:19;20.90;99.90
9329;DHT22;4703;48.748;19.142;2022-08-25T07:18:47;20.90;99.90
9329;DHT22;4703;48.748;19.142;2022-08-25T07:21:14;21.00;99.90
9329;DHT22;4703;48.748;19.142;2022-08-25T07:23:43;21.00;99.90
9329;DHT22;4703;48.748;19.142;2022-08-25T07:26:15;21.10;99.90
9329;DHT22;4703;48.748;19.142;2022-08-25T07:29:26;21.20;99.90
9329;DHT22;4703;48.748;19.142;2022-08-25T07:31:59;21.20;99.90
9329;DHT22;4703;48.748;19.142;2022-08-25T07:34:27;21.30;99.90
9329;DHT22;4703;48.748;19.142;2022-08-25T07:37:32;21.40;99.90
9329;DHT22;4703;48.748;19.142;2022-08-25T07:40:17;21.40;99.90
9329;DHT22;4703;48.748;19.142;2022-08-25T07:42:51;21.50;99.90
9329;DHT22;4703;48.748;19.142;2022-08-25T07:45:21;21.50;99.90
9329;DHT22;4703;48.748;19.142;2022-08-25T07:48:06;21.60;99.90
9329;DHT22;4703;48.748;19.142;2022-08-25T07:50:36;21.70;99.90
9329;DHT22;4703;48.748;19.142;2022-08-25T07:53:08;21.70;99.90
9329;DHT22;4703;48.748;19.142;2022-08-25T07:55:36;21.80;99.90
9329;DHT22;4703;48.748;19.142;2022-08-25T07:58:06;21.90;99.90
9329;DHT22;4703;48.748;19.142;2022-08-25T08:00:38;21.90;99.90
9329;DHT22;4703;48.748;19.142;2022-08-25T08:03:08;22.00;99.90
9329;DHT22;4703;48.748;19.142;2022-08-25T08:05:56;22.00;99.90
9329;DHT22;4703;48.748;19.142;2022-08-25T08:08:23;22.10;99.90
9329;DHT22;4703;48.748;19.142;2022-08-25T08:10:50;22.20;99.90
9329;DHT22;4703;48.748;19.142;2022-08-25T08:13:36;22.20;99.90
9329;DHT22;4703;48.748;19.142;2022-08-25T08:16:12;22.30;99.90
9329;DHT22;4703;48.748;19.142;2022-08-25T08:18:41;22.40;99.90
9329;DHT22;4703;48.748;19.142;2022-08-25T08:21:23;22.50;99.90
9329;DHT22;4703;48.748;19.142;2022-08-25T08:23:54;22.50;99.90
9329;DHT22;4703;48.748;19.142;2022-08-25T08:26:25;22.50;99.90
9329;DHT22;4703;48.748;19.142;2022-08-25T08:29:13;22.60;99.90
9329;DHT22;4703;48.748;19.142;2022-08-25T08:31:41;22.70;99.90
9329;DHT22;4703;48.748;19.142;2022-08-25T08:34:14;22.70;99.90
9329;DHT22;4703;48.748;19.142;2022-08-25T08:36:42;22.80;99.90
9329;DHT22;4703;48.748;19.142;2022-08-25T08:39:11;22.90;99.90
9329;DHT22;4703;48.748;19.142;2022-08-25T08:41:46;22.90;99.90
9329;DHT22;4703;48.748;19.142;2022-08-25T08:50:28;23.20;99.90
9329;DHT22;4703;48.748;19.142;2022-08-25T08:56:25;23.30;99.90
9329;DHT22;4703;48.748;19.142;2022-08-25T08:59:12;23.40;99.90
9329;DHT22;4703;48.748;19.142;2022-08-25T09:01:52;23.40;99.90
9329;DHT22;4703;48.748;19.142;2022-08-25T09:04:36;23.70;99.90
9329;DHT22;4703;48.748;19.142;2022-08-25T09:07:12;23.70;99.90
9329;DHT22;4703;48.748;19.142;2022-08-25T09:09:46;23.70;99.90
9329;DHT22;4703;48.748;19.142;2022-08-25T09:23:34;24.10;99.90
9329;DHT22;4703;48.748;19.142;2022-08-25T09:26:32;24.10;99.90
9329;DHT22;4703;48.748;19.142;2022-08-25T09:29:13;24.20;99.90
9329;DHT22;4703;48.748;19.142;2022-08-25T09:31:44;24.30;99.90
9329;DHT22;4703;48.748;19.142;2022-08-25T09:34:20;24.30;99.90
9329;DHT22;4703;48.748;19.142;2022-08-25T09:36:48;24.40;99.90
9329;DHT22;4703;48.748;19.142;2022-08-25T09:39:19;24.40;99.90
9329;DHT22;4703;48.748;19.142;2022-08-25T09:41:57;24.50;99.90
9329;DHT22;4703;48.748;19.142;2022-08-25T09:44:31;24.50;99.90
9329;DHT22;4703;48.748;19.142;2022-08-25T09:47:03;24.60;99.90
9329;DHT22;4703;48.748;19.142;2022-08-25T09:49:43;24.70;99.90
9329;DHT22;4703;48.748;19.142;2022-08-25T09:52:25;24.70;99.90
9329;DHT22;4703;48.748;19.142;2022-08-25T09:55:16;24.90;99.90
9329;DHT22;4703;48.748;19.142;2022-08-25T09:57:53;25.00;99.90
9329;DHT22;4703;48.748;19.142;2022-08-25T10:00:33;25.10;99.90
9329;DHT22;4703;48.748;19.142;2022-08-25T10:03:19;25.30;99.90
9329;DHT22;4703;48.748;19.142;2022-08-25T10:06:05;25.50;99.90
9329;DHT22;4703;48.748;19.142;2022-08-25T10:11:14;25.90;99.90
9329;DHT22;4703;48.748;19.142;2022-08-25T10:14:28;26.10;99.70
9329;DHT22;4703;48.748;19.142;2022-08-25T10:17:23;26.40;99.10
9329;DHT22;4703;48.748;19.142;2022-08-25T10:20:12;26.70;99.20
9329;DHT22;4703;48.748;19.142;2022-08-25T10:22:50;26.80;98.20
9329;DHT22;4703;48.748;19.142;2022-08-25T10:25:30;26.90;98.00
9329;DHT22;4703;48.748;19.142;2022-08-25T10:31:18;27.30;96.90
9329;DHT22;4703;48.748;19.142;2022-08-25T10:40:11;27.50;94.70
9329;DHT22;4703;48.748;19.142;2022-08-25T10:45:44;27.60;92.90
9329;DHT22;4703;48.748;19.142;2022-08-25T10:48:19;27.60;93.30
9329;DHT22;4703;48.748;19.142;2022-08-25T11:00:21;28.00;91.80
9329;DHT22;4703;48.748;19.142;2022-08-25T11:05:48;28.10;91.60
9329;DHT22;4703;48.748;19.142;2022-08-25T11:08:43;28.10;91.30
9329;DHT22;4703;48.748;19.142;2022-08-25T11:11:27;28.10;91.70
9329;DHT22;4703;48.748;19.142;2022-08-25T11:14:11;28.20;92.40
9329;DHT22;4703;48.748;19.142;2022-08-25T11:16:57;28.20;92.20
9329;DHT22;4703;48.748;19.142;2022-08-25T11:19:35;28.30;91.50
9329;DHT22;4703;48.748;19.142;2022-08-25T11:25:27;28.50;92.00
9329;DHT22;4703;48.748;19.142;2022-08-25T11:28:10;28.60;91.60
9329;DHT22;4703;48.748;19.142;2022-08-25T11:30:41;28.70;89.60
9329;DHT22;4703;48.748;19.142;2022-08-25T11:33:13;28.80;90.40
9329;DHT22;4703;48.748;19.142;2022-08-25T11:39:00;29.10;90.80
9329;DHT22;4703;48.748;19.142;2022-08-25T11:41:45;29.30;89.90
9329;DHT22;4703;48.748;19.142;2022-08-25T11:44:51;29.40;91.30
9329;DHT22;4703;48.748;19.142;2022-08-25T11:53:43;30.50;90.00
9329;DHT22;4703;48.748;19.142;2022-08-25T11:56:11;30.70;90.60
9329;DHT22;4703;48.748;19.142;2022-08-25T11:58:58;31.10;90.70
9329;DHT22;4703;48.748;19.142;2022-08-25T12:07:16;32.20;83.70
9329;DHT22;4703;48.748;19.142;2022-08-25T12:18:13;32.90;80.20
9329;DHT22;4703;48.748;19.142;2022-08-25T12:23:29;33.30;75.00
9329;DHT22;4703;48.748;19.142;2022-08-25T12:26:03;33.40;74.00
9329;DHT22;4703;48.748;19.142;2022-08-25T12:35:26;33.70;74.70
9329;DHT22;4703;48.748;19.142;2022-08-25T12:38:13;33.90;75.00
9329;DHT22;4703;48.748;19.142;2022-08-25T12:41:07;33.90;73.40
9329;DHT22;4703;48.748;19.142;2022-08-25T12:43:41;33.80;73.30
9329;DHT22;4703;48.748;19.142;2022-08-25T12:52:08;33.20;71.70
9329;DHT22;4703;48.748;19.142;2022-08-25T13:00:24;32.10;74.90
9329;DHT22;4703;48.748;19.142;2022-08-25T13:14:44;30.80;74.90
9329;DHT22;4703;48.748;19.142;2022-08-25T13:17:30;30.50;77.60
9329;DHT22;4703;48.748;19.142;2022-08-25T13:22:49;30.30;78.60
9329;DHT22;4703;48.748;19.142;2022-08-25T13:25:25;30.10;77.00
9329;DHT22;4703;48.748;19.142;2022-08-25T13:28:02;30.10;79.80
9329;DHT22;4703;48.748;19.142;2022-08-25T13:30:33;30.10;80.20
9329;DHT22;4703;48.748;19.142;2022-08-25T13:33:16;30.10;77.70
9329;DHT22;4703;48.748;19.142;2022-08-25T13:35:49;30.10;78.40
9329;DHT22;4703;48.748;19.142;2022-08-25T13:38:43;30.10;77.50
9329;DHT22;4703;48.748;19.142;2022-08-25T13:41:24;30.10;79.90
9329;DHT22;4703;48.748;19.142;2022-08-25T13:43:55;30.10;80.40
9329;DHT22;4703;48.748;19.142;2022-08-25T13:46:27;30.20;81.60
9329;DHT22;4703;48.748;19.142;2022-08-25T13:49:04;30.30;84.10
9329;DHT22;4703;48.748;19.142;2022-08-25T13:51:35;30.40;85.00
9329;DHT22;4703;48.748;19.142;2022-08-25T13:54:07;30.40;83.00
9329;DHT22;4703;48.748;19.142;2022-08-25T13:56:37;30.60;81.00
9329;DHT22;4703;48.748;19.142;2022-08-25T13:59:26;30.70;79.00
9329;DHT22;4703;48.748;19.142;2022-08-25T14:01:58;30.90;79.80
9329;DHT22;4703;48.748;19.142;2022-08-25T14:04:32;31.00;81.70
9329;DHT22;4703;48.748;19.142;2022-08-25T14:18:13;31.00;79.50
9329;DHT22;4703;48.748;19.142;2022-08-25T14:20:48;31.00;77.20
9329;DHT22;4703;48.748;19.142;2022-08-25T14:23:25;30.80;77.60
9329;DHT22;4703;48.748;19.142;2022-08-25T14:25:56;30.80;76.40
9329;DHT22;4703;48.748;19.142;2022-08-25T14:28:26;30.70;77.40
9329;DHT22;4703;48.748;19.142;2022-08-25T14:31:05;30.80;78.20
9329;DHT22;4703;48.748;19.142;2022-08-25T14:33:54;30.90;79.00
9329;DHT22;4703;48.748;19.142;2022-08-25T14:36:25;30.90;79.80
9329;DHT22;4703;48.748;19.142;2022-08-25T14:38:56;31.00;76.20
9329;DHT22;4703;48.748;19.142;2022-08-25T14:41:25;31.00;74.50
9329;DHT22;4703;48.748;19.142;2022-08-25T14:43:52;31.00;77.10
9329;DHT22;4703;48.748;19.142;2022-08-25T14:46:22;31.00;78.00
9329;DHT22;4703;48.748;19.142;2022-08-25T14:48:59;31.00;74.00
9329;DHT22;4703;48.748;19.142;2022-08-25T14:51:29;31.10;75.80
9329;DHT22;4703;48.748;19.142;2022-08-25T14:54:04;31.10;76.10
9329;DHT22;4703;48.748;19.142;2022-08-25T14:56:35;31.20;75.60
9329;DHT22;4703;48.748;19.142;2022-08-25T14:59:02;31.30;75.30
9329;DHT22;4703;48.748;19.142;2022-08-25T15:01:30;31.40;73.70
9329;DHT22;4703;48.748;19.142;2022-08-25T15:04:04;31.60;74.90
9329;DHT22;4703;48.748;19.142;2022-08-25T15:06:34;31.80;76.30
9329;DHT22;4703;48.748;19.142;2022-08-25T15:09:06;32.30;74.50
9329;DHT22;4703;48.748;19.142;2022-08-25T15:11:42;32.70;71.20
9329;DHT22;4703;48.748;19.142;2022-08-25T15:14:12;33.20;75.40
9329;DHT22;4703;48.748;19.142;2022-08-25T15:16:46;33.50;75.00
9329;DHT22;4703;48.748;19.142;2022-08-25T15:19:18;34.00;75.50
9329;DHT22;4703;48.748;19.142;2022-08-25T15:21:49;34.40;70.90
9329;DHT22;4703;48.748;19.142;2022-08-25T15:24:18;34.80;71.60
9329;DHT22;4703;48.748;19.142;2022-08-25T15:26:52;35.10;69.50
9329;DHT22;4703;48.748;19.142;2022-08-25T15:29:29;35.40;68.40
9329;DHT22;4703;48.748;19.142;2022-08-25T15:31:58;35.70;62.80
9329;DHT22;4703;48.748;19.142;2022-08-25T15:34:27;35.90;66.40
9329;DHT22;4703;48.748;19.142;2022-08-25T15:36:56;36.00;60.20
9329;DHT22;4703;48.748;19.142;2022-08-25T15:39:24;36.10;59.30
9329;DHT22;4703;48.748;19.142;2022-08-25T15:41:51;36.20;60.60
9329;DHT22;4703;48.748;19.142;2022-08-25T15:44:19;36.20;61.60
9329;DHT22;4703;48.748;19.142;2022-08-25T15:46:46;36.20;61.40
9329;DHT22;4703;48.748;19.142;2022-08-25T15:49:16;36.20;59.80
9329;DHT22;4703;48.748;19.142;2022-08-25T15:51:53;36.20;59.30
9329;DHT22;4703;48.748;19.142;2022-08-25T15:54:24;36.10;58.20
9329;DHT22;4703;48.748;19.142;2022-08-25T15:56:54;36.10;59.20
9329;DHT22;4703;48.748;19.142;2022-08-25T15:59:23;36.00;59.10
9329;DHT22;4703;48.748;19.142;2022-08-25T16:01:51;35.90;58.90
9329;DHT22;4703;48.748;19.142;2022-08-25T16:04:23;35.90;59.20
9329;DHT22;4703;48.748;19.142;2022-08-25T16:06:53;35.80;60.30
9329;DHT22;4703;48.748;19.142;2022-08-25T16:09:21;35.80;57.50
9329;DHT22;4703;48.748;19.142;2022-08-25T16:11:49;35.80;60.40
9329;DHT22;4703;48.748;19.142;2022-08-25T16:14:22;35.80;59.80
9329;DHT22;4703;48.748;19.142;2022-08-25T16:16:49;35.70;62.30
9329;DHT22;4703;48.748;19.142;2022-08-25T16:19:18;35.70;62.10
9329;DHT22;4703;48.748;19.142;2022-08-25T16:21:45;35.60;62.70
9329;DHT22;4703;48.748;19.142;2022-08-25T16:24:14;35.60;57.70
9329;DHT22;4703;48.748;19.142;2022-08-25T16:26:42;35.60;60.00
9329;DHT22;4703;48.748;19.142;2022-08-25T16:29:14;35.50;62.00
9329;DHT22;4703;48.748;19.142;2022-08-25T16:31:42;35.40;62.50
9329;DHT22;4703;48.748;19.142;2022-08-25T16:34:13;35.20;62.00
9329;DHT22;4703;48.748;19.142;2022-08-25T16:36:40;34.90;64.00
9329;DHT22;4703;48.748;19.142;2022-08-25T16:39:08;34.50;66.10
9329;DHT22;4703;48.748;19.142;2022-08-25T16:41:36;33.90;65.00
9329;DHT22;4703;48.748;19.142;2022-08-25T16:44:07;33.30;67.80
9329;DHT22;4703;48.748;19.142;2022-08-25T16:46:37;32.80;70.90
9329;DHT22;4703;48.748;19.142;2022-08-25T16:49:07;32.40;72.20
9329;DHT22;4703;48.748;19.142;2022-08-25T16:51:36;32.00;74.00
9329;DHT22;4703;48.748;19.142;2022-08-25T16:54:05;31.60;74.20
9329;DHT22;4703;48.748;19.142;2022-08-25T16:56:52;31.30;76.30
9329;DHT22;4703;48.748;19.142;2022-08-25T16:59:20;31.10;77.20
9329;DHT22;4703;48.748;19.142;2022-08-25T17:01:50;30.80;78.30
9329;DHT22;4703;48.748;19.142;2022-08-25T17:04:17;30.60;79.70
9329;DHT22;4703;48.748;19.142;2022-08-25T17:06:46;30.40;79.60
9329;DHT22;4703;48.748;19.142;2022-08-25T17:09:18;30.20;80.40
9329;DHT22;4703;48.748;19.142;2022-08-25T17:11:50;30.00;82.70
9329;DHT22;4703;48.748;19.142;2022-08-25T17:14:20;29.80;82.60
9329;DHT22;4703;48.748;19.142;2022-08-25T17:16:48;29.70;83.50
9329;DHT22;4703;48.748;19.142;2022-08-25T17:19:17;29.50;84.40
9329;DHT22;4703;48.748;19.142;2022-08-25T17:21:44;29.40;84.80
9329;DHT22;4703;48.748;19.142;2022-08-25T17:24:15;29.20;86.80
9329;DHT22;4703;48.748;19.142;2022-08-25T17:26:44;29.10;88.60
9329;DHT22;4703;48.748;19.142;2022-08-25T17:29:12;29.00;87.30
9329;DHT22;4703;48.748;19.142;2022-08-25T17:31:39;28.80;88.30
9329;DHT22;4703;48.748;19.142;2022-08-25T17:34:11;28.70;89.80
9329;DHT22;4703;48.748;19.142;2022-08-25T17:36:43;28.60;90.20
9329;DHT22;4703;48.748;19.142;2022-08-25T17:39:12;28.50;90.50
9329;DHT22;4703;48.748;19.142;2022-08-25T17:41:40;28.30;91.10
9329;DHT22;4703;48.748;19.142;2022-08-25T17:44:10;28.20;91.10
9329;DHT22;4703;48.748;19.142;2022-08-25T17:46:39;28.10;91.60
9329;DHT22;4703;48.748;19.142;2022-08-25T17:49:15;27.30;92.10
9329;DHT22;4703;48.748;19.142;2022-08-25T17:51:43;27.80;92.50
9329;DHT22;4703;48.748;19.142;2022-08-25T17:54:11;27.70;92.40
9329;DHT22;4703;48.748;19.142;2022-08-25T17:56:38;27.60;92.70
9329;DHT22;4703;48.748;19.142;2022-08-25T17:59:06;27.60;93.10
9329;DHT22;4703;48.748;19.142;2022-08-25T18:01:35;27.40;93.20
9329;DHT22;4703;48.748;19.142;2022-08-25T18:04:09;27.30;93.80
9329;DHT22;4703;48.748;19.142;2022-08-25T18:06:44;27.30;94.20
9329;DHT22;4703;48.748;19.142;2022-08-25T18:09:15;27.20;94.50
9329;DHT22;4703;48.748;19.142;2022-08-25T18:11:44;27.10;94.70
9329;DHT22;4703;48.748;19.142;2022-08-25T18:14:12;27.00;95.10
9329;DHT22;4703;48.748;19.142;2022-08-25T18:16:39;26.90;95.40
9329;DHT22;4703;48.748;19.142;2022-08-25T18:19:08;26.90;96.10